sensor_id;sensor_type;location;lat;lon;timestamp;P1;durP1;ratioP1;P2;durP2;ratioP2
23121;SDS011;11730;51.248;22.534;2023-05-13T00:02:17;27.27;;;15.20;;
23121;SDS011;11730;51.248;22.534;2023-05-13T00:04:45;52.20;;;30.90;;
23121;SDS011;11730;51.248;22.534;2023-05-13T00:07:12;25.40;;;13.88;;
23121;SDS011;11730;51.248;22.534;2023-05-13T00:09:39;23.48;;;11.68;;
23121;SDS011;11730;51.248;22.534;2023-05-13T00:12:07;29.65;;;11.98;;
23121;SDS011;11730;51.248;22.534;2023-05-13T00:14:34;30.67;;;12.55;;
23121;SDS011;11730;51.248;22.534;2023-05-13T00:17:02;24.33;;;11.90;;
23121;SDS011;11730;51.248;22.534;2023-05-13T00:19:30;21.80;;;12.00;;
23121;SDS011;11730;51.248;22.534;2023-05-13T00:21:57;19.77;;;12.07;;
23121;SDS011;11730;51.248;22.534;2023-05-13T00:24:24;22.25;;;12.57;;
23121;SDS011;11730;51.248;22.534;2023-05-13T00:26:53;22.63;;;11.48;;
23121;SDS011;11730;51.248;22.534;2023-05-13T00:29:20;24.50;;;12.82;;
23121;SDS011;11730;51.248;22.534;2023-05-13T00:31:47;20.60;;;12.23;;
23121;SDS011;11730;51.248;22.534;2023-05-13T00:34:14;22.45;;;13.55;;
23121;SDS011;11730;51.248;22.534;2023-05-13T00:36:42;26.92;;;13.77;;
23121;SDS011;11730;51.248;22.534;2023-05-13T00:39:09;25.73;;;16.00;;
23121;SDS011;11730;51.248;22.534;2023-05-13T00:41:36;46.05;;;26.98;;
23121;SDS011;11730;51.248;22.534;2023-05-13T00:44:03;23.88;;;14.57;;
23121;SDS011;11730;51.248;22.534;2023-05-13T00:46:31;25.50;;;13.20;;
23121;SDS011;11730;51.248;22.534;2023-05-13T00:48:59;20.70;;;12.52;;
23121;SDS011;11730;51.248;22.534;2023-05-13T00:51:26;25.73;;;13.80;;
23121;SDS011;11730;51.248;22.534;2023-05-13T00:53:54;21.02;;;12.13;;
23121;SDS011;11730;51.248;22.534;2023-05-13T00:56:24;24.40;;;12.18;;
23121;SDS011;11730;51.248;22.534;2023-05-13T00:58:52;24.70;;;13.43;;
23121;SDS011;11730;51.248;22.534;2023-05-13T01:10:16;21.90;;;12.38;;
23121;SDS011;11730;51.248;22.534;2023-05-13T01:12:52;23.33;;;13.40;;
23121;SDS011;11730;51.248;22.534;2023-05-13T01:15:26;24.23;;;13.23;;
23121;SDS011;11730;51.248;22.534;2023-05-13T01:20:22;28.63;;;13.02;;
23121;SDS011;11730;51.248;22.534;2023-05-13T01:22:49;24.02;;;12.80;;
23121;SDS011;11730;51.248;22.534;2023-05-13T01:25:16;21.13;;;12.50;;
23121;SDS011;11730;51.248;22.534;2023-05-13T01:27:43;20.40;;;13.13;;
23121;SDS011;11730;51.248;22.534;2023-05-13T01:30:11;22.15;;;13.23;;
23121;SDS011;11730;51.248;22.534;2023-05-13T01:32:38;30.02;;;13.68;;
23121;SDS011;11730;51.248;22.534;2023-05-13T01:35:06;26.23;;;12.93;;
23121;SDS011;11730;51.248;22.534;2023-05-13T01:37:34;22.80;;;12.20;;
23121;SDS011;11730;51.248;22.534;2023-05-13T01:40:02;23.02;;;13.23;;
23121;SDS011;11730;51.248;22.534;2023-05-13T01:42:45;24.85;;;13.60;;
23121;SDS011;11730;51.248;22.534;2023-05-13T01:45:12;21.75;;;13.07;;
23121;SDS011;11730;51.248;22.534;2023-05-13T01:47:40;23.00;;;12.98;;
23121;SDS011;11730;51.248;22.534;2023-05-13T01:50:07;21.80;;;12.77;;
23121;SDS011;11730;51.248;22.534;2023-05-13T01:52:34;24.77;;;13.82;;
23121;SDS011;11730;51.248;22.534;2023-05-13T01:55:02;22.17;;;12.63;;
23121;SDS011;11730;51.248;22.534;2023-05-13T01:57:29;25.17;;;13.55;;
23121;SDS011;11730;51.248;22.534;2023-05-13T01:59:56;23.33;;;13.23;;
23121;SDS011;11730;51.248;22.534;2023-05-13T02:02:24;24.30;;;13.35;;
23121;SDS011;11730;51.248;22.534;2023-05-13T02:04:51;24.92;;;13.77;;
23121;SDS011;11730;51.248;22.534;2023-05-13T02:07:18;26.42;;;15.05;;
23121;SDS011;11730;51.248;22.534;2023-05-13T02:09:44;21.70;;;13.02;;
23121;SDS011;11730;51.248;22.534;2023-05-13T02:12:12;22.73;;;13.65;;
23121;SDS011;11730;51.248;22.534;2023-05-13T02:14:39;25.85;;;13.40;;
23121;SDS011;11730;51.248;22.534;2023-05-13T02:17:06;28.55;;;13.82;;
23121;SDS011;11730;51.248;22.534;2023-05-13T02:19:33;24.35;;;13.48;;
23121;SDS011;11730;51.248;22.534;2023-05-13T02:22:01;28.38;;;12.88;;
23121;SDS011;11730;51.248;22.534;2023-05-13T02:24:29;21.50;;;12.93;;
23121;SDS011;11730;51.248;22.534;2023-05-13T02:26:56;22.17;;;13.07;;
23121;SDS011;11730;51.248;22.534;2023-05-13T02:29:23;26.60;;;14.40;;
23121;SDS011;11730;51.248;22.534;2023-05-13T02:31:51;24.63;;;14.27;;
23121;SDS011;11730;51.248;22.534;2023-05-13T02:34:18;25.02;;;13.40;;
23121;SDS011;11730;51.248;22.534;2023-05-13T02:36:45;22.95;;;13.52;;
23121;SDS011;11730;51.248;22.534;2023-05-13T02:39:13;23.42;;;13.25;;
23121;SDS011;11730;51.248;22.534;2023-05-13T02:41:41;25.33;;;13.40;;
23121;SDS011;11730;51.248;22.534;2023-05-13T02:44:09;23.52;;;13.38;;
23121;SDS011;11730;51.248;22.534;2023-05-13T02:46:37;20.55;;;12.25;;
23121;SDS011;11730;51.248;22.534;2023-05-13T02:49:04;23.85;;;12.90;;
23121;SDS011;11730;51.248;22.534;2023-05-13T02:51:31;23.50;;;11.82;;
23121;SDS011;11730;51.248;22.534;2023-05-13T02:53:58;20.17;;;11.55;;
23121;SDS011;11730;51.248;22.534;2023-05-13T02:56:25;21.48;;;12.23;;
23121;SDS011;11730;51.248;22.534;2023-05-13T02:58:52;26.63;;;11.50;;
23121;SDS011;11730;51.248;22.534;2023-05-13T03:01:19;20.45;;;11.43;;
23121;SDS011;11730;51.248;22.534;2023-05-13T03:03:46;28.30;;;12.13;;
23121;SDS011;11730;51.248;22.534;2023-05-13T03:06:13;23.30;;;12.45;;
23121;SDS011;11730;51.248;22.534;2023-05-13T03:08:40;19.52;;;11.18;;
23121;SDS011;11730;51.248;22.534;2023-05-13T03:11:07;23.27;;;11.88;;
23121;SDS011;11730;51.248;22.534;2023-05-13T03:13:35;25.05;;;12.35;;
23121;SDS011;11730;51.248;22.534;2023-05-13T03:16:02;21.95;;;11.55;;
23121;SDS011;11730;51.248;22.534;2023-05-13T03:18:29;23.27;;;12.93;;
23121;SDS011;11730;51.248;22.534;2023-05-13T03:20:58;24.63;;;12.40;;
23121;SDS011;11730;51.248;22.534;2023-05-13T03:23:25;20.17;;;11.50;;
23121;SDS011;11730;51.248;22.534;2023-05-13T03:25:52;23.88;;;12.80;;
23121;SDS011;11730;51.248;22.534;2023-05-13T03:28:19;22.75;;;12.80;;
23121;SDS011;11730;51.248;22.534;2023-05-13T03:30:47;21.80;;;12.82;;
23121;SDS011;11730;51.248;22.534;2023-05-13T03:33:14;24.20;;;12.40;;
23121;SDS011;11730;51.248;22.534;2023-05-13T03:35:41;22.17;;;11.88;;
23121;SDS011;11730;51.248;22.534;2023-05-13T03:38:08;25.67;;;12.50;;
23121;SDS011;11730;51.248;22.534;2023-05-13T03:40:35;20.67;;;12.13;;
23121;SDS011;11730;51.248;22.534;2023-05-13T03:43:02;19.85;;;11.23;;
23121;SDS011;11730;51.248;22.534;2023-05-13T03:45:30;20.27;;;11.30;;
23121;SDS011;11730;51.248;22.534;2023-05-13T03:47:56;21.65;;;11.43;;
23121;SDS011;11730;51.248;22.534;2023-05-13T03:50:23;20.05;;;11.10;;
23121;SDS011;11730;51.248;22.534;2023-05-13T03:52:50;21.02;;;10.13;;
23121;SDS011;11730;51.248;22.534;2023-05-13T03:55:18;17.77;;;10.98;;
23121;SDS011;11730;51.248;22.534;2023-05-13T03:57:46;21.52;;;10.88;;
23121;SDS011;11730;51.248;22.534;2023-05-13T04:00:14;19.60;;;10.70;;
23121;SDS011;11730;51.248;22.534;2023-05-13T04:02:41;18.90;;;11.73;;
23121;SDS011;11730;51.248;22.534;2023-05-13T04:05:08;21.83;;;11.48;;
23121;SDS011;11730;51.248;22.534;2023-05-13T04:07:37;20.00;;;10.43;;
23121;SDS011;11730;51.248;22.534;2023-05-13T04:10:04;18.05;;;9.45;;
23121;SDS011;11730;51.248;22.534;2023-05-13T04:12:32;23.40;;;11.52;;
23121;SDS011;11730;51.248;22.534;2023-05-13T04:14:59;19.60;;;11.43;;
23121;SDS011;11730;51.248;22.534;2023-05-13T04:17:26;24.38;;;10.93;;
23121;SDS011;11730;51.248;22.534;2023-05-13T04:19:54;22.15;;;10.10;;
23121;SDS011;11730;51.248;22.534;2023-05-13T04:22:23;17.70;;;10.13;;
23121;SDS011;11730;51.248;22.534;2023-05-13T04:24:50;15.35;;;10.52;;
23121;SDS011;11730;51.248;22.534;2023-05-13T04:27:22;18.70;;;11.77;;
23121;SDS011;11730;51.248;22.534;2023-05-13T04:29:49;25.10;;;12.15;;
23121;SDS011;11730;51.248;22.534;2023-05-13T04:32:16;20.08;;;11.85;;
23121;SDS011;11730;51.248;22.534;2023-05-13T04:34:47;26.52;;;13.18;;
23121;SDS011;11730;51.248;22.534;2023-05-13T04:37:15;21.27;;;12.52;;
23121;SDS011;11730;51.248;22.534;2023-05-13T04:39:43;24.58;;;13.48;;
23121;SDS011;11730;51.248;22.534;2023-05-13T04:42:12;23.52;;;12.85;;
23121;SDS011;11730;51.248;22.534;2023-05-13T04:44:39;22.05;;;14.02;;
23121;SDS011;11730;51.248;22.534;2023-05-13T04:47:06;22.80;;;14.07;;
23121;SDS011;11730;51.248;22.534;2023-05-13T04:49:33;23.65;;;14.02;;
23121;SDS011;11730;51.248;22.534;2023-05-13T04:52:02;24.90;;;14.57;;
23121;SDS011;11730;51.248;22.534;2023-05-13T04:54:30;22.30;;;13.73;;
23121;SDS011;11730;51.248;22.534;2023-05-13T04:56:57;24.40;;;13.55;;
23121;SDS011;11730;51.248;22.534;2023-05-13T04:59:24;27.05;;;14.18;;
23121;SDS011;11730;51.248;22.534;2023-05-13T05:01:51;17.83;;;11.43;;
23121;SDS011;11730;51.248;22.534;2023-05-13T05:04:20;21.40;;;11.55;;
23121;SDS011;11730;51.248;22.534;2023-05-13T05:06:47;26.55;;;11.32;;
23121;SDS011;11730;51.248;22.534;2023-05-13T05:09:14;17.23;;;9.02;;
23121;SDS011;11730;51.248;22.534;2023-05-13T05:11:42;14.32;;;8.98;;
23121;SDS011;11730;51.248;22.534;2023-05-13T05:14:09;17.90;;;8.35;;
23121;SDS011;11730;51.248;22.534;2023-05-13T05:16:36;19.90;;;9.07;;
23121;SDS011;11730;51.248;22.534;2023-05-13T05:19:03;24.58;;;9.63;;
23121;SDS011;11730;51.248;22.534;2023-05-13T05:21:30;17.40;;;8.65;;
23121;SDS011;11730;51.248;22.534;2023-05-13T05:23:57;15.63;;;8.02;;
23121;SDS011;11730;51.248;22.534;2023-05-13T05:26:27;11.65;;;7.53;;
23121;SDS011;11730;51.248;22.534;2023-05-13T05:28:54;11.98;;;7.40;;
23121;SDS011;11730;51.248;22.534;2023-05-13T05:31:21;16.60;;;8.85;;
23121;SDS011;11730;51.248;22.534;2023-05-13T05:33:48;14.88;;;8.27;;
23121;SDS011;11730;51.248;22.534;2023-05-13T05:36:16;19.23;;;10.13;;
23121;SDS011;11730;51.248;22.534;2023-05-13T05:38:43;17.90;;;8.95;;
23121;SDS011;11730;51.248;22.534;2023-05-13T05:41:10;15.70;;;8.77;;
23121;SDS011;11730;51.248;22.534;2023-05-13T05:43:37;18.35;;;9.70;;
23121;SDS011;11730;51.248;22.534;2023-05-13T05:46:05;20.98;;;9.68;;
23121;SDS011;11730;51.248;22.534;2023-05-13T05:48:32;18.52;;;8.75;;
23121;SDS011;11730;51.248;22.534;2023-05-13T05:51:00;18.63;;;9.82;;
23121;SDS011;11730;51.248;22.534;2023-05-13T05:53:27;20.50;;;9.93;;
23121;SDS011;11730;51.248;22.534;2023-05-13T05:55:54;21.88;;;11.13;;
23121;SDS011;11730;51.248;22.534;2023-05-13T05:58:21;15.90;;;9.77;;
23121;SDS011;11730;51.248;22.534;2023-05-13T06:00:48;14.45;;;6.43;;
23121;SDS011;11730;51.248;22.534;2023-05-13T06:03:16;11.80;;;5.68;;
23121;SDS011;11730;51.248;22.534;2023-05-13T06:05:43;8.25;;;5.47;;
23121;SDS011;11730;51.248;22.534;2023-05-13T06:08:10;13.32;;;5.32;;
23121;SDS011;11730;51.248;22.534;2023-05-13T06:10:37;15.90;;;6.43;;
23121;SDS011;11730;51.248;22.534;2023-05-13T06:13:05;14.13;;;8.10;;
23121;SDS011;11730;51.248;22.534;2023-05-13T06:15:31;33.25;;;16.00;;
23121;SDS011;11730;51.248;22.534;2023-05-13T06:17:59;11.07;;;6.00;;
23121;SDS011;11730;51.248;22.534;2023-05-13T06:20:30;9.73;;;6.05;;
23121;SDS011;11730;51.248;22.534;2023-05-13T06:22:57;20.13;;;7.20;;
23121;SDS011;11730;51.248;22.534;2023-05-13T06:25:24;14.95;;;7.68;;
23121;SDS011;11730;51.248;22.534;2023-05-13T06:27:51;17.95;;;7.07;;
23121;SDS011;11730;51.248;22.534;2023-05-13T06:30:18;11.27;;;6.70;;
23121;SDS011;11730;51.248;22.534;2023-05-13T06:32:47;10.80;;;6.38;;
23121;SDS011;11730;51.248;22.534;2023-05-13T06:35:26;11.15;;;5.82;;
23121;SDS011;11730;51.248;22.534;2023-05-13T06:37:53;26.45;;;8.98;;
23121;SDS011;11730;51.248;22.534;2023-05-13T06:40:21;9.00;;;5.95;;
23121;SDS011;11730;51.248;22.534;2023-05-13T06:42:48;14.68;;;6.97;;
23121;SDS011;11730;51.248;22.534;2023-05-13T06:45:16;9.98;;;5.88;;
23121;SDS011;11730;51.248;22.534;2023-05-13T06:47:43;16.45;;;9.55;;
23121;SDS011;11730;51.248;22.534;2023-05-13T06:50:11;13.40;;;4.78;;
23121;SDS011;11730;51.248;22.534;2023-05-13T06:52:37;9.63;;;5.38;;
23121;SDS011;11730;51.248;22.534;2023-05-13T06:55:07;11.73;;;5.47;;
23121;SDS011;11730;51.248;22.534;2023-05-13T06:57:35;9.73;;;5.15;;
23121;SDS011;11730;51.248;22.534;2023-05-13T07:02:35;7.22;;;4.28;;
23121;SDS011;11730;51.248;22.534;2023-05-13T07:05:03;10.23;;;5.28;;
23121;SDS011;11730;51.248;22.534;2023-05-13T07:07:30;8.55;;;4.65;;
23121;SDS011;11730;51.248;22.534;2023-05-13T07:09:57;15.70;;;5.50;;
23121;SDS011;11730;51.248;22.534;2023-05-13T07:12:24;9.75;;;5.07;;
23121;SDS011;11730;51.248;22.534;2023-05-13T07:14:51;7.90;;;5.03;;
23121;SDS011;11730;51.248;22.534;2023-05-13T07:17:19;8.60;;;4.43;;
23121;SDS011;11730;51.248;22.534;2023-05-13T07:19:46;6.38;;;4.50;;
23121;SDS011;11730;51.248;22.534;2023-05-13T07:22:13;9.43;;;3.97;;
23121;SDS011;11730;51.248;22.534;2023-05-13T07:24:40;7.57;;;3.95;;
23121;SDS011;11730;51.248;22.534;2023-05-13T07:27:08;7.95;;;3.50;;
23121;SDS011;11730;51.248;22.534;2023-05-13T07:29:35;5.78;;;3.25;;
23121;SDS011;11730;51.248;22.534;2023-05-13T07:32:03;7.53;;;3.35;;
23121;SDS011;11730;51.248;22.534;2023-05-13T07:34:31;9.20;;;3.05;;
23121;SDS011;11730;51.248;22.534;2023-05-13T07:36:57;5.88;;;3.00;;
23121;SDS011;11730;51.248;22.534;2023-05-13T07:39:25;9.90;;;2.83;;
23121;SDS011;11730;51.248;22.534;2023-05-13T07:41:52;4.20;;;2.97;;
23121;SDS011;11730;51.248;22.534;2023-05-13T07:44:20;5.00;;;2.50;;
23121;SDS011;11730;51.248;22.534;2023-05-13T07:46:47;7.70;;;3.22;;
23121;SDS011;11730;51.248;22.534;2023-05-13T07:49:14;22.48;;;12.95;;
23121;SDS011;11730;51.248;22.534;2023-05-13T07:51:41;4.35;;;3.20;;
23121;SDS011;11730;51.248;22.534;2023-05-13T07:54:09;8.77;;;3.65;;
23121;SDS011;11730;51.248;22.534;2023-05-13T07:56:36;7.35;;;3.85;;
23121;SDS011;11730;51.248;22.534;2023-05-13T07:59:04;5.38;;;3.13;;
23121;SDS011;11730;51.248;22.534;2023-05-13T08:01:31;6.65;;;2.72;;
23121;SDS011;11730;51.248;22.534;2023-05-13T08:03:58;12.65;;;3.67;;
23121;SDS011;11730;51.248;22.534;2023-05-13T08:06:26;14.98;;;3.60;;
23121;SDS011;11730;51.248;22.534;2023-05-13T08:08:53;6.28;;;3.42;;
23121;SDS011;11730;51.248;22.534;2023-05-13T08:11:20;6.65;;;2.92;;
23121;SDS011;11730;51.248;22.534;2023-05-13T08:13:47;6.97;;;3.40;;
23121;SDS011;11730;51.248;22.534;2023-05-13T08:16:15;7.68;;;3.50;;
23121;SDS011;11730;51.248;22.534;2023-05-13T08:18:42;6.97;;;3.05;;
23121;SDS011;11730;51.248;22.534;2023-05-13T08:21:09;4.20;;;2.80;;
23121;SDS011;11730;51.248;22.534;2023-05-13T08:23:36;8.45;;;3.10;;
23121;SDS011;11730;51.248;22.534;2023-05-13T08:26:11;6.93;;;2.83;;
23121;SDS011;11730;51.248;22.534;2023-05-13T08:28:38;8.70;;;2.47;;
23121;SDS011;11730;51.248;22.534;2023-05-13T08:31:09;5.82;;;3.00;;
23121;SDS011;11730;51.248;22.534;2023-05-13T08:33:37;10.27;;;3.13;;
23121;SDS011;11730;51.248;22.534;2023-05-13T08:36:07;4.57;;;3.25;;
23121;SDS011;11730;51.248;22.534;2023-05-13T08:38:34;4.15;;;2.95;;
23121;SDS011;11730;51.248;22.534;2023-05-13T08:41:04;5.80;;;2.45;;
23121;SDS011;11730;51.248;22.534;2023-05-13T08:43:31;9.05;;;2.60;;
23121;SDS011;11730;51.248;22.534;2023-05-13T08:46:02;4.75;;;2.70;;
23121;SDS011;11730;51.248;22.534;2023-05-13T08:48:29;6.38;;;2.47;;
23121;SDS011;11730;51.248;22.534;2023-05-13T08:50:57;5.03;;;2.28;;
23121;SDS011;11730;51.248;22.534;2023-05-13T08:53:27;8.15;;;2.70;;
23121;SDS011;11730;51.248;22.534;2023-05-13T08:55:54;5.28;;;2.20;;
23121;SDS011;11730;51.248;22.534;2023-05-13T08:58:23;5.03;;;2.33;;
23121;SDS011;11730;51.248;22.534;2023-05-13T09:00:50;5.82;;;2.60;;
23121;SDS011;11730;51.248;22.534;2023-05-13T09:03:19;4.82;;;2.67;;
23121;SDS011;11730;51.248;22.534;2023-05-13T09:05:46;3.13;;;2.05;;
23121;SDS011;11730;51.248;22.534;2023-05-13T09:08:13;7.63;;;2.40;;
23121;SDS011;11730;51.248;22.534;2023-05-13T09:10:41;5.47;;;2.50;;
23121;SDS011;11730;51.248;22.534;2023-05-13T09:13:08;7.75;;;2.67;;
23121;SDS011;11730;51.248;22.534;2023-05-13T09:15:39;7.75;;;2.70;;
23121;SDS011;11730;51.248;22.534;2023-05-13T09:18:08;5.63;;;2.80;;
23121;SDS011;11730;51.248;22.534;2023-05-13T09:20:35;21.17;;;3.75;;
23121;SDS011;11730;51.248;22.534;2023-05-13T09:23:04;11.05;;;3.10;;
23121;SDS011;11730;51.248;22.534;2023-05-13T09:25:32;4.40;;;2.70;;
23121;SDS011;11730;51.248;22.534;2023-05-13T09:28:00;4.38;;;2.42;;
23121;SDS011;11730;51.248;22.534;2023-05-13T09:30:29;4.85;;;2.90;;
23121;SDS011;11730;51.248;22.534;2023-05-13T09:33:14;3.67;;;2.67;;
23121;SDS011;11730;51.248;22.534;2023-05-13T09:35:49;4.82;;;3.08;;
23121;SDS011;11730;51.248;22.534;2023-05-13T09:38:29;9.10;;;3.38;;
23121;SDS011;11730;51.248;22.534;2023-05-13T09:41:02;9.25;;;3.60;;
23121;SDS011;11730;51.248;22.534;2023-05-13T09:43:32;6.00;;;3.47;;
23121;SDS011;11730;51.248;22.534;2023-05-13T09:46:00;5.03;;;2.83;;
23121;SDS011;11730;51.248;22.534;2023-05-13T09:48:29;5.15;;;2.80;;
23121;SDS011;11730;51.248;22.534;2023-05-13T09:50:57;6.05;;;3.03;;
23121;SDS011;11730;51.248;22.534;2023-05-13T09:53:26;5.03;;;3.13;;
23121;SDS011;11730;51.248;22.534;2023-05-13T09:55:54;7.05;;;3.00;;
23121;SDS011;11730;51.248;22.534;2023-05-13T09:58:22;4.20;;;2.70;;
23121;SDS011;11730;51.248;22.534;2023-05-13T10:00:51;5.30;;;2.70;;
23121;SDS011;11730;51.248;22.534;2023-05-13T10:03:19;11.13;;;3.15;;
23121;SDS011;11730;51.248;22.534;2023-05-13T10:05:47;6.47;;;2.63;;
23121;SDS011;11730;51.248;22.534;2023-05-13T10:08:15;5.70;;;2.50;;
23121;SDS011;11730;51.248;22.534;2023-05-13T10:10:44;8.80;;;3.20;;
23121;SDS011;11730;51.248;22.534;2023-05-13T10:13:17;34.28;;;24.30;;
23121;SDS011;11730;51.248;22.534;2023-05-13T10:15:49;5.60;;;3.85;;
23121;SDS011;11730;51.248;22.534;2023-05-13T10:18:18;7.28;;;5.00;;
23121;SDS011;11730;51.248;22.534;2023-05-13T10:20:46;5.50;;;2.60;;
23121;SDS011;11730;51.248;22.534;2023-05-13T10:25:46;3.42;;;2.67;;
23121;SDS011;11730;51.248;22.534;2023-05-13T10:28:14;6.50;;;2.50;;
23121;SDS011;11730;51.248;22.534;2023-05-13T10:30:42;5.35;;;2.65;;
23121;SDS011;11730;51.248;22.534;2023-05-13T10:33:09;5.55;;;2.50;;
23121;SDS011;11730;51.248;22.534;2023-05-13T10:35:37;6.72;;;2.10;;
23121;SDS011;11730;51.248;22.534;2023-05-13T10:40:48;4.25;;;2.38;;
23121;SDS011;11730;51.248;22.534;2023-05-13T10:43:44;4.55;;;2.50;;
23121;SDS011;11730;51.248;22.534;2023-05-13T10:46:11;6.88;;;2.40;;
23121;SDS011;11730;51.248;22.534;2023-05-13T10:51:07;3.80;;;2.10;;
23121;SDS011;11730;51.248;22.534;2023-05-13T10:53:35;6.43;;;2.78;;
23121;SDS011;11730;51.248;22.534;2023-05-13T10:56:08;5.82;;;2.00;;
23121;SDS011;11730;51.248;22.534;2023-05-13T10:58:35;4.60;;;2.33;;
23121;SDS011;11730;51.248;22.534;2023-05-13T11:01:16;4.22;;;1.70;;
23121;SDS011;11730;51.248;22.534;2023-05-13T11:03:51;4.22;;;2.00;;
23121;SDS011;11730;51.248;22.534;2023-05-13T11:06:20;4.80;;;1.83;;
23121;SDS011;11730;51.248;22.534;2023-05-13T11:08:54;4.30;;;2.30;;
23121;SDS011;11730;51.248;22.534;2023-05-13T11:13:52;2.10;;;1.60;;
23121;SDS011;11730;51.248;22.534;2023-05-13T11:16:20;10.33;;;3.60;;
23121;SDS011;11730;51.248;22.534;2023-05-13T11:18:50;7.40;;;2.65;;
23121;SDS011;11730;51.248;22.534;2023-05-13T11:21:28;8.68;;;2.25;;
23121;SDS011;11730;51.248;22.534;2023-05-13T11:24:03;4.57;;;2.05;;
23121;SDS011;11730;51.248;22.534;2023-05-13T11:26:49;4.22;;;2.25;;
23121;SDS011;11730;51.248;22.534;2023-05-13T11:29:32;1.95;;;1.60;;
23121;SDS011;11730;51.248;22.534;2023-05-13T11:32:00;7.93;;;1.70;;
23121;SDS011;11730;51.248;22.534;2023-05-13T11:34:29;7.68;;;2.10;;
23121;SDS011;11730;51.248;22.534;2023-05-13T11:39:30;5.15;;;1.85;;
23121;SDS011;11730;51.248;22.534;2023-05-13T11:41:57;6.10;;;2.00;;
23121;SDS011;11730;51.248;22.534;2023-05-13T11:44:27;3.15;;;2.00;;
23121;SDS011;11730;51.248;22.534;2023-05-13T11:47:12;6.15;;;3.53;;
23121;SDS011;11730;51.248;22.534;2023-05-13T11:49:45;4.90;;;2.00;;
23121;SDS011;11730;51.248;22.534;2023-05-13T11:52:13;5.90;;;2.58;;
23121;SDS011;11730;51.248;22.534;2023-05-13T11:59:47;5.70;;;2.10;;
23121;SDS011;11730;51.248;22.534;2023-05-13T12:02:21;5.50;;;2.97;;
23121;SDS011;11730;51.248;22.534;2023-05-13T12:04:49;5.63;;;2.63;;
23121;SDS011;11730;51.248;22.534;2023-05-13T12:07:21;6.75;;;2.10;;
23121;SDS011;11730;51.248;22.534;2023-05-13T12:09:50;4.07;;;1.80;;
23121;SDS011;11730;51.248;22.534;2023-05-13T12:12:17;3.75;;;2.38;;
23121;SDS011;11730;51.248;22.534;2023-05-13T12:14:48;7.10;;;1.88;;
23121;SDS011;11730;51.248;22.534;2023-05-13T12:17:16;4.43;;;1.92;;
23121;SDS011;11730;51.248;22.534;2023-05-13T12:22:31;7.20;;;1.90;;
23121;SDS011;11730;51.248;22.534;2023-05-13T12:24:59;4.57;;;2.42;;
23121;SDS011;11730;51.248;22.534;2023-05-13T12:27:28;4.35;;;2.10;;
23121;SDS011;11730;51.248;22.534;2023-05-13T12:29:55;3.40;;;2.08;;
23121;SDS011;11730;51.248;22.534;2023-05-13T12:32:25;6.35;;;1.92;;
23121;SDS011;11730;51.248;22.534;2023-05-13T12:34:52;4.30;;;2.38;;
23121;SDS011;11730;51.248;22.534;2023-05-13T12:37:22;5.88;;;2.67;;
23121;SDS011;11730;51.248;22.534;2023-05-13T12:39:50;12.93;;;8.75;;
23121;SDS011;11730;51.248;22.534;2023-05-13T12:42:35;6.43;;;2.60;;
23121;SDS011;11730;51.248;22.534;2023-05-13T12:45:03;4.40;;;1.95;;
23121;SDS011;11730;51.248;22.534;2023-05-13T12:47:45;4.78;;;2.47;;
23121;SDS011;11730;51.248;22.534;2023-05-13T12:50:16;4.15;;;2.10;;
23121;SDS011;11730;51.248;22.534;2023-05-13T12:52:43;2.85;;;1.67;;
23121;SDS011;11730;51.248;22.534;2023-05-13T12:55:10;5.15;;;1.98;;
23121;SDS011;11730;51.248;22.534;2023-05-13T12:57:41;3.90;;;2.20;;
23121;SDS011;11730;51.248;22.534;2023-05-13T13:00:08;6.15;;;2.50;;
23121;SDS011;11730;51.248;22.534;2023-05-13T13:02:38;4.80;;;2.20;;
23121;SDS011;11730;51.248;22.534;2023-05-13T13:05:06;3.97;;;2.20;;
23121;SDS011;11730;51.248;22.534;2023-05-13T13:07:33;3.60;;;2.33;;
23121;SDS011;11730;51.248;22.534;2023-05-13T13:10:04;6.15;;;2.70;;
23121;SDS011;11730;51.248;22.534;2023-05-13T13:12:32;7.85;;;2.65;;
23121;SDS011;11730;51.248;22.534;2023-05-13T13:14:59;3.70;;;2.25;;
23121;SDS011;11730;51.248;22.534;2023-05-13T13:17:27;4.03;;;2.78;;
23121;SDS011;11730;51.248;22.534;2023-05-13T13:19:54;5.75;;;1.92;;
23121;SDS011;11730;51.248;22.534;2023-05-13T13:22:21;4.45;;;2.28;;
23121;SDS011;11730;51.248;22.534;2023-05-13T13:24:49;5.68;;;2.45;;
23121;SDS011;11730;51.248;22.534;2023-05-13T13:27:16;9.90;;;2.90;;
23121;SDS011;11730;51.248;22.534;2023-05-13T13:29:44;4.15;;;2.50;;
23121;SDS011;11730;51.248;22.534;2023-05-13T13:32:11;6.28;;;2.70;;
23121;SDS011;11730;51.248;22.534;2023-05-13T13:34:38;5.80;;;2.30;;
23121;SDS011;11730;51.248;22.534;2023-05-13T13:37:05;4.55;;;2.17;;
23121;SDS011;11730;51.248;22.534;2023-05-13T13:39:32;5.25;;;2.00;;
23121;SDS011;11730;51.248;22.534;2023-05-13T13:42:00;6.47;;;2.20;;
23121;SDS011;11730;51.248;22.534;2023-05-13T13:44:30;4.00;;;2.47;;
23121;SDS011;11730;51.248;22.534;2023-05-13T13:46:57;6.78;;;2.50;;
23121;SDS011;11730;51.248;22.534;2023-05-13T13:49:25;4.95;;;2.67;;
23121;SDS011;11730;51.248;22.534;2023-05-13T13:51:52;4.50;;;2.70;;
23121;SDS011;11730;51.248;22.534;2023-05-13T13:54:19;6.63;;;2.80;;
23121;SDS011;11730;51.248;22.534;2023-05-13T13:56:46;8.02;;;3.25;;
23121;SDS011;11730;51.248;22.534;2023-05-13T13:59:14;5.15;;;2.33;;
23121;SDS011;11730;51.248;22.534;2023-05-13T14:01:44;4.85;;;2.60;;
23121;SDS011;11730;51.248;22.534;2023-05-13T14:04:15;7.50;;;2.97;;
23121;SDS011;11730;51.248;22.534;2023-05-13T14:06:49;5.10;;;2.30;;
23121;SDS011;11730;51.248;22.534;2023-05-13T14:09:16;7.65;;;2.25;;
23121;SDS011;11730;51.248;22.534;2023-05-13T14:11:43;4.38;;;2.25;;
23121;SDS011;11730;51.248;22.534;2023-05-13T14:14:11;4.75;;;2.55;;
23121;SDS011;11730;51.248;22.534;2023-05-13T14:16:39;3.50;;;2.47;;
23121;SDS011;11730;51.248;22.534;2023-05-13T14:19:06;8.45;;;2.40;;
23121;SDS011;11730;51.248;22.534;2023-05-13T14:21:33;7.38;;;2.95;;
23121;SDS011;11730;51.248;22.534;2023-05-13T14:24:00;5.80;;;3.58;;
23121;SDS011;11730;51.248;22.534;2023-05-13T14:26:28;7.35;;;2.80;;
23121;SDS011;11730;51.248;22.534;2023-05-13T14:28:55;7.40;;;2.42;;
23121;SDS011;11730;51.248;22.534;2023-05-13T14:31:22;7.18;;;2.70;;
23121;SDS011;11730;51.248;22.534;2023-05-13T14:33:49;8.70;;;2.42;;
23121;SDS011;11730;51.248;22.534;2023-05-13T14:36:16;2.50;;;2.00;;
23121;SDS011;11730;51.248;22.534;2023-05-13T14:38:45;4.43;;;2.17;;
23121;SDS011;11730;51.248;22.534;2023-05-13T14:41:12;4.53;;;2.13;;
23121;SDS011;11730;51.248;22.534;2023-05-13T14:43:45;7.13;;;2.92;;
23121;SDS011;11730;51.248;22.534;2023-05-13T14:46:12;8.43;;;3.40;;
23121;SDS011;11730;51.248;22.534;2023-05-13T14:48:40;3.85;;;2.15;;
23121;SDS011;11730;51.248;22.534;2023-05-13T14:51:07;6.72;;;2.30;;
23121;SDS011;11730;51.248;22.534;2023-05-13T14:53:36;4.18;;;2.60;;
23121;SDS011;11730;51.248;22.534;2023-05-13T14:56:04;5.53;;;2.95;;
23121;SDS011;11730;51.248;22.534;2023-05-13T14:58:32;5.47;;;2.60;;
23121;SDS011;11730;51.248;22.534;2023-05-13T15:00:59;8.15;;;2.63;;
23121;SDS011;11730;51.248;22.534;2023-05-13T15:03:26;5.80;;;2.53;;
23121;SDS011;11730;51.248;22.534;2023-05-13T15:05:54;3.65;;;2.33;;